Terminal Aerodrome Forecast
Issued by NWS Buffalo, NY

Home | Current Version | Previous Version | Text Only | Print | Product List | Glossary On
Versions: 1 2 3 4 5 6 7 8 9 10 11 12 13 14 15 16 17 18 19 20 21 22 23 24 25 26
000
FTUS41 KBUF 190200 AAA
TAFROC
TAF AMD
KROC 190248Z 1903/1924 VRB03KT P6SM SCT025
     FM190500 VRB03KT P6SM BKN025
     FM190900 10005KT P6SM SCT025
     FM191400 12008KT P6SM SKC=

USA.gov is the U.S. government's official web portal to all federal, state and local government web resources and services.